Capitol Logistics 2186

Operating for AJT



KPHL
Philadelphia International Airport
Philadelphia, Pennsylvania
KONT
Ontario International Airport
Ontario, California

Activity Log

Date Flight Route Aircraft Duration
No Flights Yet

Route Details

Aircraft Information
Primary: Boeing 767-300BDSF
Backup: Boeing 757-200SF
Route Data
Distance: 2045nm
Duration: 5h 15m
Recm'd Route: MXE PENSY J110 BEETS Q430 AIR ROD BVT BDF FOD J94 BFF J157 LAR SAKES BLD Q114 NATEE JCKIE2
Origin Wx: KPHL 141854Z 22010KT 10SM FEW065 OVC085 17/11 A3000 RMK AO2 RAE06 SLP159 P0000 T01720106
Dest. Wx: KONT 141853Z 23008KT 190V270 10SM FEW035 BKN043 17/06 A2999 RMK AO2 SLP149 T01670061
Notes: